Time;durP1;ratioP1;P1;durP2;ratioP2;P2;SDS_P1;SDS_P2;PMS_P1;PMS_P2;Temp;Humidity;BMP_temperature;BMP_pressure;BME280_temperature;BME280_humidity;BME280_pressure;Samples;Min_cycle;Max_cycle;Signal;HPM_P1;HPM_P2
2023/07/20 00:01:26;;;;;;;3.00;1.48;;;;;;;;;;5075819;28;20029;-34
2023/07/20 00:03:56;;;;;;;2.03;1.25;;;;;;;;;;5075383;28;20039;-31
2023/07/20 00:06:27;;;;;;;1.90;1.33;;;;;;;;;;5075349;28;20119;-32
2023/07/20 00:08:53;;;;;;;2.47;1.85;;;;;;;;;;5076139;28;20119;-32
2023/07/20 00:11:19;;;;;;;2.40;2.20;;;;;;;;;;5075300;28;20028;-30
2023/07/20 00:13:45;;;;;;;3.13;1.70;;;;;;;;;;5075262;28;20402;-34
2023/07/20 00:16:12;;;;;;;1.98;1.48;;;;;;;;;;5075570;28;20093;-34
2023/07/20 00:18:38;;;;;;;5.95;3.17;;;;;;;;;;5075576;28;20025;-32
2023/07/20 00:21:04;;;;;;;1.95;1.48;;;;;;;;;;5075393;28;20024;-32
2023/07/20 00:23:30;;;;;;;5.15;2.60;;;;;;;;;;5075036;28;20033;-32
2023/07/20 00:25:56;;;;;;;2.90;1.40;;;;;;;;;;5075316;28;20036;-31
2023/07/20 00:28:22;;;;;;;2.65;1.40;;;;;;;;;;5075052;28;20036;-33
2023/07/20 00:30:48;;;;;;;2.42;1.35;;;;;;;;;;5074174;28;20401;-32
2023/07/20 00:33:18;;;;;;;2.42;1.30;;;;;;;;;;5074817;28;20024;-32
2023/07/20 00:35:44;;;;;;;2.08;1.98;;;;;;;;;;5075200;28;20494;-31
2023/07/20 00:38:11;;;;;;;2.78;1.50;;;;;;;;;;5075130;28;20029;-31
2023/07/20 00:40:39;;;;;;;2.88;1.25;;;;;;;;;;5075023;28;20056;-31
2023/07/20 00:43:06;;;;;;;2.03;1.30;;;;;;;;;;5074675;28;20059;-32
2023/07/20 00:45:32;;;;;;;4.28;1.50;;;;;;;;;;5074618;28;20485;-33
2023/07/20 00:47:58;;;;;;;2.85;1.35;;;;;;;;;;5074602;28;20447;-31
2023/07/20 00:50:26;;;;;;;2.72;1.63;;;;;;;;;;5074847;28;20024;-31
2023/07/20 00:52:52;;;;;;;1.73;1.40;;;;;;;;;;5074600;28;20020;-31
2023/07/20 00:55:19;;;;;;;5.15;1.30;;;;;;;;;;5074535;28;20017;-31
2023/07/20 00:57:45;;;;;;;3.13;1.55;;;;;;;;;;5074672;28;20024;-32
2023/07/20 01:00:11;;;;;;;2.85;1.60;;;;;;;;;;5074414;28;20090;-33
2023/07/20 01:02:37;;;;;;;2.00;1.40;;;;;;;;;;5074407;28;20020;-32
2023/07/20 01:05:06;;;;;;;2.40;1.25;;;;;;;;;;5074288;28;20037;-31
2023/07/20 01:07:36;;;;;;;2.50;2.13;;;;;;;;;;5074889;28;20058;-32
2023/07/20 01:10:02;;;;;;;4.00;1.10;;;;;;;;;;5074644;28;20099;-32
2023/07/20 01:12:30;;;;;;;4.40;1.40;;;;;;;;;;5074732;28;20028;-31
2023/07/20 01:14:57;;;;;;;1.40;1.10;;;;;;;;;;5074884;28;20025;-32
2023/07/20 01:17:24;;;;;;;5.00;1.40;;;;;;;;;;5074509;28;20474;-33
2023/07/20 01:19:50;;;;;;;2.42;1.45;;;;;;;;;;5074390;28;20051;-33
2023/07/20 01:22:22;;;;;;;3.63;1.40;;;;;;;;;;5074595;28;20033;-31
2023/07/20 01:24:48;;;;;;;1.95;1.50;;;;;;;;;;5074699;28;20024;-31
2023/07/20 01:27:33;;;;;;;2.05;1.30;;;;;;;;;;5074391;28;20025;-32
2023/07/20 01:30:08;;;;;;;3.10;1.23;;;;;;;;;;5074565;28;20094;-34
2023/07/20 01:32:35;;;;;;;2.33;1.08;;;;;;;;;;5074249;28;20020;-32
2023/07/20 01:35:02;;;;;;;2.33;1.40;;;;;;;;;;5074475;28;20024;-32
2023/07/20 01:37:30;;;;;;;2.75;1.50;;;;;;;;;;5074532;28;20096;-33
2023/07/20 01:39:56;;;;;;;3.20;1.60;;;;;;;;;;5074318;28;20036;-31
2023/07/20 01:42:24;;;;;;;5.72;1.58;;;;;;;;;;5076467;28;20030;-31
2023/07/20 01:44:53;;;;;;;2.38;1.30;;;;;;;;;;5078940;28;20036;-33
2023/07/20 01:47:19;;;;;;;3.30;1.65;;;;;;;;;;5077959;28;20025;-32
2023/07/20 01:49:46;;;;;;;4.93;1.27;;;;;;;;;;5077824;28;20356;-33
2023/07/20 01:52:12;;;;;;;3.67;1.40;;;;;;;;;;5078083;28;20457;-32
2023/07/20 01:54:38;;;;;;;1.92;1.25;;;;;;;;;;5077992;28;20021;-32
2023/07/20 01:57:04;;;;;;;1.73;1.55;;;;;;;;;;5077926;28;20012;-31
2023/07/20 01:59:30;;;;;;;2.72;1.50;;;;;;;;;;5078042;28;20039;-31
2023/07/20 02:01:56;;;;;;;2.03;1.67;;;;;;;;;;5077899;28;20035;-32
2023/07/20 02:04:22;;;;;;;3.22;2.20;;;;;;;;;;5077894;28;20111;-33
2023/07/20 02:06:48;;;;;;;2.67;1.42;;;;;;;;;;5077443;28;20052;-31
2023/07/20 02:09:15;;;;;;;1.52;1.42;;;;;;;;;;5077648;28;20021;-31
2023/07/20 02:11:41;;;;;;;4.88;1.35;;;;;;;;;;5077741;28;20055;-33
2023/07/20 02:14:07;;;;;;;2.13;1.13;;;;;;;;;;5077327;28;20024;-31
2023/07/20 02:16:33;;;;;;;3.63;2.38;;;;;;;;;;5077547;28;20016;-32
2023/07/20 02:18:59;;;;;;;2.00;1.20;;;;;;;;;;5077804;28;20082;-32
2023/07/20 02:21:25;;;;;;;1.55;1.25;;;;;;;;;;5077207;28;20036;-32
2023/07/20 02:23:51;;;;;;;1.98;1.10;;;;;;;;;;5077130;28;20031;-31
2023/07/20 02:26:17;;;;;;;2.35;1.40;;;;;;;;;;5077197;28;20032;-32
2023/07/20 02:28:43;;;;;;;1.38;0.93;;;;;;;;;;5077155;28;20359;-31
2023/07/20 02:31:09;;;;;;;2.05;1.20;;;;;;;;;;5077316;28;20024;-32
2023/07/20 02:33:36;;;;;;;3.80;1.38;;;;;;;;;;5077259;28;20344;-31
2023/07/20 02:36:02;;;;;;;2.65;1.42;;;;;;;;;;5077348;28;20108;-33
2023/07/20 02:38:28;;;;;;;2.03;1.20;;;;;;;;;;5077229;28;20019;-32
2023/07/20 02:40:54;;;;;;;3.33;1.70;;;;;;;;;;5077374;28;20025;-33
2023/07/20 02:43:20;;;;;;;2.63;1.27;;;;;;;;;;5077305;28;20029;-32
2023/07/20 02:45:46;;;;;;;1.83;1.30;;;;;;;;;;5076846;28;20028;-32
2023/07/20 02:48:12;;;;;;;2.47;1.50;;;;;;;;;;5077001;28;20032;-32
2023/07/20 02:50:38;;;;;;;3.15;1.30;;;;;;;;;;5076926;28;20028;-31
2023/07/20 02:53:04;;;;;;;1.92;1.80;;;;;;;;;;5075771;28;20024;-32
2023/07/20 02:55:31;;;;;;;1.90;1.58;;;;;;;;;;5077163;28;20414;-33
2023/07/20 02:57:57;;;;;;;2.88;1.10;;;;;;;;;;5077216;28;20024;-31
2023/07/20 03:00:23;;;;;;;4.72;1.50;;;;;;;;;;5059154;28;20033;-31
2023/07/20 03:02:52;;;;;;;3.63;1.45;;;;;;;;;;5059281;28;20036;-32
2023/07/20 03:05:18;;;;;;;2.88;1.30;;;;;;;;;;5076588;28;20064;-31
2023/07/20 03:07:45;;;;;;;1.73;1.10;;;;;;;;;;5076663;28;20025;-32
2023/07/20 03:10:11;;;;;;;1.50;1.30;;;;;;;;;;5076526;28;20091;-32
2023/07/20 03:12:37;;;;;;;1.85;1.30;;;;;;;;;;5076500;28;20082;-35
2023/07/20 03:15:04;;;;;;;0.82;0.82;;;;;;;;;;5076538;28;20218;-33
2023/07/20 03:17:30;;;;;;;3.40;1.48;;;;;;;;;;5076713;28;20671;-31
2023/07/20 03:19:56;;;;;;;2.90;0.98;;;;;;;;;;5076422;28;20111;-33
2023/07/20 03:22:24;;;;;;;1.05;1.05;;;;;;;;;;5076490;28;20028;-32
2023/07/20 03:24:51;;;;;;;2.17;1.60;;;;;;;;;;5076571;28;20028;-32
2023/07/20 03:27:17;;;;;;;2.17;1.20;;;;;;;;;;5076544;28;20062;-32
2023/07/20 03:29:44;;;;;;;1.70;1.10;;;;;;;;;;5076632;28;20028;-31
2023/07/20 03:32:10;;;;;;;3.03;1.77;;;;;;;;;;5076352;28;20039;-31
2023/07/20 03:34:37;;;;;;;2.60;1.77;;;;;;;;;;5076084;28;20097;-32
2023/07/20 03:37:04;;;;;;;7.70;2.00;;;;;;;;;;5076042;28;20534;-32
2023/07/20 03:39:31;;;;;;;1.38;1.27;;;;;;;;;;5076237;28;20173;-32
2023/07/20 03:41:59;;;;;;;3.05;1.23;;;;;;;;;;5076131;28;20020;-31
2023/07/20 03:44:25;;;;;;;1.70;1.25;;;;;;;;;;5075864;28;20017;-36
2023/07/20 03:46:51;;;;;;;1.30;1.17;;;;;;;;;;5076118;28;20466;-31
2023/07/20 03:49:17;;;;;;;1.70;1.20;;;;;;;;;;5075724;28;20036;-32
2023/07/20 03:51:44;;;;;;;2.13;1.15;;;;;;;;;;5075701;28;20363;-33
2023/07/20 03:54:10;;;;;;;2.78;1.50;;;;;;;;;;5075734;28;20024;-31
2023/07/20 03:56:36;;;;;;;2.00;1.27;;;;;;;;;;5075573;28;20478;-32
2023/07/20 03:59:02;;;;;;;1.48;1.02;;;;;;;;;;5075589;28;20025;-32
2023/07/20 04:01:28;;;;;;;1.50;0.93;;;;;;;;;;5075457;28;20032;-31
2023/07/20 04:03:55;;;;;;;1.27;1.17;;;;;;;;;;5075571;28;20093;-32
2023/07/20 04:06:21;;;;;;;3.75;1.00;;;;;;;;;;5075038;28;20060;-31
2023/07/20 04:08:47;;;;;;;2.88;1.65;;;;;;;;;;5075483;28;20033;-31
2023/07/20 04:11:14;;;;;;;1.13;1.02;;;;;;;;;;5075101;28;20407;-32
2023/07/20 04:13:40;;;;;;;1.33;1.17;;;;;;;;;;5075279;28;20422;-32
2023/07/20 04:16:06;;;;;;;3.97;1.13;;;;;;;;;;5074942;28;20037;-31
2023/07/20 04:18:32;;;;;;;2.65;1.20;;;;;;;;;;5075412;28;20390;-31
2023/07/20 04:20:58;;;;;;;1.52;1.17;;;;;;;;;;5057284;28;20047;-32
2023/07/20 04:23:24;;;;;;;4.18;1.35;;;;;;;;;;5075069;28;20025;-33
2023/07/20 04:25:51;;;;;;;7.65;1.23;;;;;;;;;;5075158;28;20033;-32
2023/07/20 04:28:17;;;;;;;3.75;1.48;;;;;;;;;;5075482;28;20047;-32
2023/07/20 04:30:44;;;;;;;3.80;1.20;;;;;;;;;;5074562;28;20451;-33
2023/07/20 04:33:10;;;;;;;0.90;0.90;;;;;;;;;;5074578;28;20055;-34
2023/07/20 04:35:46;;;;;;;1.50;1.30;;;;;;;;;;5074807;28;20154;-34
2023/07/20 04:38:13;;;;;;;3.05;1.45;;;;;;;;;;5074719;28;20463;-33
2023/07/20 04:40:39;;;;;;;1.95;1.27;;;;;;;;;;5074728;28;20439;-33
2023/07/20 04:43:05;;;;;;;1.40;0.93;;;;;;;;;;5075376;28;20074;-34
2023/07/20 04:45:31;;;;;;;2.33;1.00;;;;;;;;;;5074872;28;20020;-32
2023/07/20 04:47:58;;;;;;;3.13;1.00;;;;;;;;;;5074906;28;20056;-32
2023/07/20 04:50:25;;;;;;;2.55;1.27;;;;;;;;;;5074769;28;20103;-33
2023/07/20 04:52:53;;;;;;;1.50;1.10;;;;;;;;;;5074411;28;20103;-32
2023/07/20 04:55:19;;;;;;;4.05;1.20;;;;;;;;;;5056865;28;20020;-34
2023/07/20 04:57:45;;;;;;;1.88;1.35;;;;;;;;;;5074384;28;20017;-33
2023/07/20 05:00:13;;;;;;;2.90;1.50;;;;;;;;;;5074733;28;20452;-32
2023/07/20 05:02:39;;;;;;;3.15;1.55;;;;;;;;;;5074607;28;20039;-33
2023/07/20 05:05:09;;;;;;;4.82;1.73;;;;;;;;;;5056436;28;20044;-31
2023/07/20 05:07:35;;;;;;;6.80;1.70;;;;;;;;;;5074601;28;20028;-32
2023/07/20 05:10:01;;;;;;;4.13;1.35;;;;;;;;;;5056527;28;20064;-33
2023/07/20 05:12:27;;;;;;;4.53;1.52;;;;;;;;;;5074296;28;20024;-32
2023/07/20 05:14:53;;;;;;;1.58;1.00;;;;;;;;;;5074288;28;20409;-33
2023/07/20 05:17:19;;;;;;;3.70;1.40;;;;;;;;;;5079459;28;20099;-34
2023/07/20 05:19:45;;;;;;;2.10;1.05;;;;;;;;;;5081263;28;20025;-34
2023/07/20 05:22:14;;;;;;;3.55;1.40;;;;;;;;;;5080671;28;20025;-32
2023/07/20 05:24:40;;;;;;;4.78;1.42;;;;;;;;;;5080548;28;20029;-32
2023/07/20 05:27:06;;;;;;;5.57;1.27;;;;;;;;;;5080658;28;20476;-34
2023/07/20 05:29:32;;;;;;;5.07;1.40;;;;;;;;;;5080855;28;20328;-33
2023/07/20 05:31:59;;;;;;;1.77;1.17;;;;;;;;;;5081020;28;20098;-35
2023/07/20 05:34:25;;;;;;;1.70;1.40;;;;;;;;;;5080967;28;20446;-31
2023/07/20 05:36:51;;;;;;;2.83;1.40;;;;;;;;;;5080785;28;20024;-31
2023/07/20 05:39:18;;;;;;;6.40;1.58;;;;;;;;;;5080949;28;20048;-31
2023/07/20 05:41:44;;;;;;;2.63;1.17;;;;;;;;;;5080812;28;20012;-32
2023/07/20 05:44:10;;;;;;;3.53;1.52;;;;;;;;;;5081010;28;20032;-35
2023/07/20 05:46:36;;;;;;;3.15;1.10;;;;;;;;;;5063046;28;20367;-32
2023/07/20 05:49:02;;;;;;;1.38;1.17;;;;;;;;;;5063307;28;20052;-32
2023/07/20 05:51:29;;;;;;;1.33;0.90;;;;;;;;;;5080936;28;20034;-32
2023/07/20 05:53:55;;;;;;;1.85;1.25;;;;;;;;;;5080927;28;20016;-32
2023/07/20 05:56:21;;;;;;;1.70;1.60;;;;;;;;;;5080617;28;20055;-32
2023/07/20 05:58:47;;;;;;;1.25;1.15;;;;;;;;;;5080657;28;20020;-32
2023/07/20 06:03:49;;;;;;;2.45;0.85;;;;;;;;;;5181030;22;20057;-25
2023/07/20 06:06:15;;;;;;;6.90;2.08;;;;;;;;;;5060322;28;20106;-24
2023/07/20 06:08:41;;;;;;;7.03;1.20;;;;;;;;;;5060513;28;20036;-24
2023/07/20 06:11:07;;;;;;;9.52;1.63;;;;;;;;;;5060125;28;20056;-24
2023/07/20 06:13:34;;;;;;;5.90;1.65;;;;;;;;;;5060511;28;20021;-24
2023/07/20 06:16:00;;;;;;;9.73;2.30;;;;;;;;;;5059788;28;20103;-24
2023/07/20 06:18:26;;;;;;;2.58;1.17;;;;;;;;;;5042260;28;20482;-23
2023/07/20 06:20:52;;;;;;;1.98;1.67;;;;;;;;;;5059993;28;20368;-24
2023/07/20 06:23:21;;;;;;;5.75;2.28;;;;;;;;;;5060407;28;20029;-23
2023/07/20 06:25:48;;;;;;;8.10;1.52;;;;;;;;;;5060326;28;20055;-23
2023/07/20 06:28:14;;;;;;;4.15;1.63;;;;;;;;;;5057334;28;20056;-23
2023/07/20 06:30:40;;;;;;;6.90;1.40;;;;;;;;;;5056874;28;20028;-24
2023/07/20 06:33:07;;;;;;;10.07;1.85;;;;;;;;;;5039729;28;20033;-24
2023/07/20 06:35:35;;;;;;;8.10;1.40;;;;;;;;;;5056834;28;20017;-24
2023/07/20 06:38:03;;;;;;;3.53;1.50;;;;;;;;;;5056780;28;20029;-22
2023/07/20 06:40:30;;;;;;;16.27;1.67;;;;;;;;;;5057104;28;20032;-24
2023/07/20 06:42:56;;;;;;;8.93;1.90;;;;;;;;;;5056669;28;20344;-24
2023/07/20 06:45:22;;;;;;;13.38;2.10;;;;;;;;;;5056561;28;20048;-22
2023/07/20 06:47:48;;;;;;;7.93;1.65;;;;;;;;;;5056372;28;20040;-24
2023/07/20 06:50:14;;;;;;;8.35;2.05;;;;;;;;;;5056497;28;20029;-25
2023/07/20 06:52:41;;;;;;;7.45;1.92;;;;;;;;;;5056325;28;20444;-24
2023/07/20 06:55:08;;;;;;;9.35;1.75;;;;;;;;;;5038593;28;20466;-23
2023/07/20 06:57:34;;;;;;;6.80;1.27;;;;;;;;;;5056978;28;20021;-23
2023/07/20 07:00:00;;;;;;;7.20;1.65;;;;;;;;;;5056633;28;20032;-24
2023/07/20 07:02:26;;;;;;;8.85;1.92;;;;;;;;;;5060101;28;20048;-23
2023/07/20 07:04:53;;;;;;;6.45;1.67;;;;;;;;;;5076311;28;20047;-22
2023/07/20 07:07:20;;;;;;;6.82;2.15;;;;;;;;;;5076301;28;20115;-24
2023/07/20 07:09:46;;;;;;;4.13;1.38;;;;;;;;;;5076466;28;20024;-24
2023/07/20 07:12:12;;;;;;;7.20;1.50;;;;;;;;;;5076547;28;20038;-24
2023/07/20 07:14:38;;;;;;;6.45;1.73;;;;;;;;;;5076244;28;20024;-24
2023/07/20 07:17:04;;;;;;;4.97;1.45;;;;;;;;;;5076420;28;20020;-24
2023/07/20 07:19:30;;;;;;;12.00;1.80;;;;;;;;;;5076376;28;20355;-23
2023/07/20 07:21:57;;;;;;;4.72;1.30;;;;;;;;;;5075886;28;20025;-24
2023/07/20 07:24:23;;;;;;;2.75;1.33;;;;;;;;;;5076063;28;20024;-24
2023/07/20 07:26:49;;;;;;;9.73;1.48;;;;;;;;;;5075913;28;20067;-23
2023/07/20 07:29:15;;;;;;;5.60;1.17;;;;;;;;;;5076345;28;20389;-22
2023/07/20 07:31:41;;;;;;;3.97;1.77;;;;;;;;;;5076121;28;20021;-24
2023/07/20 07:34:07;;;;;;;3.78;1.35;;;;;;;;;;5075913;28;20048;-24
2023/07/20 07:36:33;;;;;;;1.45;1.00;;;;;;;;;;5058290;28;20117;-22
2023/07/20 07:39:00;;;;;;;6.50;1.58;;;;;;;;;;5075538;28;20474;-24
2023/07/20 07:41:26;;;;;;;4.25;1.45;;;;;;;;;;5075875;28;20105;-23
2023/07/20 07:43:52;;;;;;;6.95;1.58;;;;;;;;;;5075826;28;20021;-24
2023/07/20 07:46:18;;;;;;;2.72;1.15;;;;;;;;;;5075671;28;20075;-24
2023/07/20 07:48:44;;;;;;;2.15;1.10;;;;;;;;;;5076001;28;20024;-24
2023/07/20 07:51:10;;;;;;;5.30;1.50;;;;;;;;;;5075853;28;20060;-22
2023/07/20 07:53:37;;;;;;;3.20;1.30;;;;;;;;;;5075563;28;20048;-24
2023/07/20 07:56:03;;;;;;;1.75;1.17;;;;;;;;;;5075803;28;20024;-23
2023/07/20 07:58:31;;;;;;;4.82;1.70;;;;;;;;;;5075410;28;20017;-23
2023/07/20 08:00:57;;;;;;;4.30;1.63;;;;;;;;;;5075355;28;20063;-23
2023/07/20 08:03:24;;;;;;;8.95;1.67;;;;;;;;;;5075053;28;20056;-24
2023/07/20 08:05:50;;;;;;;9.55;3.45;;;;;;;;;;5057652;28;20036;-24
2023/07/20 08:08:16;;;;;;;14.38;1.80;;;;;;;;;;5075650;28;20025;-23
2023/07/20 08:10:42;;;;;;;21.98;2.55;;;;;;;;;;5075489;28;20389;-24
2023/07/20 08:13:08;;;;;;;9.82;2.10;;;;;;;;;;5075071;28;20191;-24
2023/07/20 08:15:35;;;;;;;5.15;1.58;;;;;;;;;;5075387;28;20110;-22
2023/07/20 08:18:01;;;;;;;5.50;1.50;;;;;;;;;;5075007;28;20032;-24
2023/07/20 08:20:27;;;;;;;8.85;1.60;;;;;;;;;;5074903;28;20077;-24
2023/07/20 08:22:55;;;;;;;6.30;1.67;;;;;;;;;;5075154;28;20020;-24
2023/07/20 08:25:21;;;;;;;4.53;1.52;;;;;;;;;;5074770;28;20040;-24
2023/07/20 08:27:47;;;;;;;3.92;1.42;;;;;;;;;;5074788;28;20027;-23
2023/07/20 08:30:14;;;;;;;5.35;1.58;;;;;;;;;;5075005;28;20020;-23
2023/07/20 08:32:40;;;;;;;3.85;1.83;;;;;;;;;;5057045;28;20032;-24
2023/07/20 08:35:07;;;;;;;8.30;1.38;;;;;;;;;;5074975;28;20024;-24
2023/07/20 08:37:33;;;;;;;2.25;1.20;;;;;;;;;;5057426;28;20074;-24
2023/07/20 08:39:59;;;;;;;2.75;1.15;;;;;;;;;;5074685;28;20024;-24
2023/07/20 08:42:26;;;;;;;5.10;1.70;;;;;;;;;;5074584;28;20090;-24
2023/07/20 08:44:53;;;;;;;2.97;1.30;;;;;;;;;;5074417;28;20027;-24
2023/07/20 08:47:21;;;;;;;7.40;1.67;;;;;;;;;;5066593;28;20401;-24
2023/07/20 08:49:49;;;;;;;6.63;2.47;;;;;;;;;;5074227;28;20028;-22
2023/07/20 08:52:15;;;;;;;6.85;1.50;;;;;;;;;;5073606;28;20099;-25
2023/07/20 08:54:42;;;;;;;4.32;1.58;;;;;;;;;;5056570;28;20024;-24
2023/07/20 08:57:08;;;;;;;5.35;1.23;;;;;;;;;;5056454;28;20028;-24
2023/07/20 08:59:37;;;;;;;1.63;0.98;;;;;;;;;;5074490;28;20028;-24
2023/07/20 09:02:05;;;;;;;3.50;1.33;;;;;;;;;;5055715;28;20021;-25
2023/07/20 09:04:31;;;;;;;2.28;1.42;;;;;;;;;;5054804;28;20031;-24
2023/07/20 09:06:57;;;;;;;5.70;1.75;;;;;;;;;;5054310;28;20512;-24
2023/07/20 09:09:23;;;;;;;3.63;1.17;;;;;;;;;;5053945;28;20021;-25
2023/07/20 09:11:50;;;;;;;2.88;1.15;;;;;;;;;;5053954;28;20100;-23
2023/07/20 09:14:16;;;;;;;6.30;1.25;;;;;;;;;;5053990;28;20040;-24
2023/07/20 09:16:50;;;;;;;4.32;1.42;;;;;;;;;;5053869;28;20021;-24
2023/07/20 09:19:16;;;;;;;4.88;1.48;;;;;;;;;;5053860;28;20032;-24
2023/07/20 09:21:45;;;;;;;4.55;1.27;;;;;;;;;;5053569;28;20033;-24
2023/07/20 09:24:11;;;;;;;5.05;1.33;;;;;;;;;;5054082;28;20044;-22
2023/07/20 09:26:50;;;;;;;5.20;1.52;;;;;;;;;;5054212;28;20086;-24
2023/07/20 09:29:20;;;;;;;2.67;1.48;;;;;;;;;;5036486;28;20021;-24
2023/07/20 09:32:05;;;;;;;7.10;1.33;;;;;;;;;;5054021;28;20056;-23
2023/07/20 09:34:31;;;;;;;4.95;1.30;;;;;;;;;;5036567;28;20082;-24
2023/07/20 09:36:58;;;;;;;5.60;1.70;;;;;;;;;;5053748;28;20025;-24
2023/07/20 09:39:25;;;;;;;3.78;1.20;;;;;;;;;;5036140;28;20359;-23
2023/07/20 09:41:52;;;;;;;3.55;1.63;;;;;;;;;;5053835;28;20162;-24
2023/07/20 09:44:18;;;;;;;3.63;1.50;;;;;;;;;;5053881;28;20162;-24
2023/07/20 09:46:51;;;;;;;3.28;1.30;;;;;;;;;;5053862;28;20025;-23
2023/07/20 09:49:20;;;;;;;12.85;1.70;;;;;;;;;;5054056;28;20467;-24
2023/07/20 09:51:47;;;;;;;8.40;1.90;;;;;;;;;;5053715;28;20036;-25
2023/07/20 09:54:14;;;;;;;4.60;1.48;;;;;;;;;;5054343;28;20044;-23
2023/07/20 09:56:41;;;;;;;7.68;2.28;;;;;;;;;;5053681;28;20466;-23
2023/07/20 09:59:07;;;;;;;3.03;1.50;;;;;;;;;;5053534;28;20017;-23
2023/07/20 10:01:35;;;;;;;4.65;1.40;;;;;;;;;;5053771;28;20033;-23
2023/07/20 10:04:04;;;;;;;6.05;1.73;;;;;;;;;;5073583;28;20424;-23
2023/07/20 10:06:33;;;;;;;5.85;1.77;;;;;;;;;;5077782;28;20392;-24
2023/07/20 10:09:03;;;;;;;5.47;1.40;;;;;;;;;;5077631;28;20461;-24
2023/07/20 10:11:36;;;;;;;2.88;1.10;;;;;;;;;;5077221;28;20470;-22
2023/07/20 10:14:06;;;;;;;6.97;2.00;;;;;;;;;;5077283;28;20423;-23
2023/07/20 10:16:35;;;;;;;2.78;1.15;;;;;;;;;;5077801;28;20032;-24
2023/07/20 10:19:12;;;;;;;3.78;2.28;;;;;;;;;;5077483;28;20444;-24
2023/07/20 10:21:41;;;;;;;11.55;2.00;;;;;;;;;;5077329;28;20107;-24
2023/07/20 10:24:07;;;;;;;9.38;2.35;;;;;;;;;;5077282;28;20021;-24
2023/07/20 10:26:33;;;;;;;10.38;1.55;;;;;;;;;;5077738;28;20040;-23
2023/07/20 10:29:00;;;;;;;4.45;1.70;;;;;;;;;;5076942;28;20028;-23
2023/07/20 10:31:28;;;;;;;7.43;1.80;;;;;;;;;;5076823;28;20020;-24
2023/07/20 10:33:55;;;;;;;11.63;2.58;;;;;;;;;;5076900;28;20021;-23
2023/07/20 10:36:26;;;;;;;5.35;1.33;;;;;;;;;;5059340;28;20029;-23
2023/07/20 10:38:52;;;;;;;;;;;;;;;;;;5078052;28;20090;-25
2023/07/20 10:41:18;;;;;;;7.90;1.60;;;;;;;;;;5076596;28;19999;-24
2023/07/20 10:43:45;;;;;;;9.20;2.10;;;;;;;;;;5076552;28;20074;-24
2023/07/20 10:46:14;;;;;;;2.90;1.60;;;;;;;;;;5076781;28;20033;-23
2023/07/20 10:49:16;;;;;;;5.60;1.80;;;;;;;;;;5076371;28;20024;-24
2023/07/20 10:51:48;;;;;;;11.82;1.35;;;;;;;;;;5034581;28;20037;-24
2023/07/20 10:54:17;;;;;;;5.65;1.80;;;;;;;;;;5069897;28;20371;-24
2023/07/20 10:56:50;;;;;;;7.80;1.58;;;;;;;;;;5076456;28;20028;-24
2023/07/20 10:59:22;;;;;;;3.40;1.80;;;;;;;;;;5076678;28;20343;-23
2023/07/20 11:01:51;;;;;;;4.10;1.50;;;;;;;;;;5076892;28;20031;-24
2023/07/20 11:04:21;;;;;;;5.75;1.83;;;;;;;;;;5057104;28;20052;-23
2023/07/20 11:06:55;;;;;;;3.17;1.40;;;;;;;;;;5056859;28;20019;-25
2023/07/20 11:09:26;;;;;;;4.07;1.33;;;;;;;;;;5056637;28;20021;-24
2023/07/20 11:12:09;;;;;;;6.88;2.22;;;;;;;;;;5056416;28;20017;-23
2023/07/20 11:14:40;;;;;;;3.33;1.63;;;;;;;;;;5055575;28;20031;-24
2023/07/20 11:17:14;;;;;;;13.13;2.33;;;;;;;;;;5056478;28;20021;-24
2023/07/20 11:19:40;;;;;;;6.30;1.58;;;;;;;;;;5055987;28;20033;-24
2023/07/20 11:22:07;;;;;;;7.78;1.88;;;;;;;;;;5055790;28;20024;-22
2023/07/20 11:24:34;;;;;;;8.38;2.22;;;;;;;;;;5055981;28;20025;-24
2023/07/20 11:27:03;;;;;;;4.90;2.85;;;;;;;;;;5056577;28;20096;-24
2023/07/20 11:29:29;;;;;;;9.77;1.85;;;;;;;;;;5056197;28;20105;-24
2023/07/20 11:31:56;;;;;;;10.73;2.53;;;;;;;;;;5038415;28;20052;-21
2023/07/20 11:34:23;;;;;;;3.97;1.42;;;;;;;;;;5056124;28;20436;-24
2023/07/20 11:36:49;;;;;;;2.65;1.58;;;;;;;;;;5056292;28;20025;-24
2023/07/20 11:39:20;;;;;;;5.70;2.08;;;;;;;;;;5055638;28;20024;-23
2023/07/20 11:41:50;;;;;;;8.73;2.47;;;;;;;;;;5055753;28;20113;-25
2023/07/20 11:44:29;;;;;;;4.35;1.83;;;;;;;;;;5055545;28;20029;-24
2023/07/20 11:47:03;;;;;;;9.57;2.03;;;;;;;;;;5055806;28;20033;-24
2023/07/20 11:49:29;;;;;;;1.60;1.42;;;;;;;;;;5055662;28;20036;-25
2023/07/20 11:51:57;;;;;;;2.63;1.42;;;;;;;;;;5055529;28;20039;-23
2023/07/20 11:54:24;;;;;;;5.03;1.65;;;;;;;;;;5055694;28;20033;-24
2023/07/20 11:56:55;;;;;;;7.07;1.65;;;;;;;;;;5055807;28;20021;-24
2023/07/20 11:59:21;;;;;;;14.05;1.92;;;;;;;;;;5055655;28;20025;-24
2023/07/20 12:01:47;;;;;;;16.60;3.33;;;;;;;;;;5055361;28;20036;-24
2023/07/20 12:04:14;;;;;;;6.88;1.88;;;;;;;;;;5073523;28;20154;-23
2023/07/20 12:06:40;;;;;;;6.88;1.90;;;;;;;;;;5075291;28;20300;-23
2023/07/20 12:09:06;;;;;;;6.78;1.70;;;;;;;;;;5075268;28;20028;-25
2023/07/20 12:11:36;;;;;;;6.35;2.03;;;;;;;;;;5075343;28;20078;-24
2023/07/20 12:14:03;;;;;;;5.65;1.85;;;;;;;;;;5075053;28;20059;-25
2023/07/20 12:16:29;;;;;;;3.75;1.95;;;;;;;;;;5075176;28;20020;-24
2023/07/20 12:19:02;;;;;;;5.72;1.98;;;;;;;;;;5057416;28;20108;-24
2023/07/20 12:21:28;;;;;;;5.40;1.67;;;;;;;;;;5057398;28;20020;-24
2023/07/20 12:23:56;;;;;;;8.88;2.17;;;;;;;;;;5075042;28;20040;-24
2023/07/20 12:26:23;;;;;;;10.13;1.65;;;;;;;;;;5073643;28;20089;-24
2023/07/20 12:28:50;;;;;;;8.38;1.88;;;;;;;;;;5056947;28;20495;-24
2023/07/20 12:31:16;;;;;;;7.28;2.00;;;;;;;;;;5074588;28;20025;-24
2023/07/20 12:33:42;;;;;;;8.27;1.95;;;;;;;;;;5074742;28;20016;-24
2023/07/20 12:36:09;;;;;;;5.28;1.83;;;;;;;;;;5074997;28;20031;-24
2023/07/20 12:38:35;;;;;;;6.28;1.70;;;;;;;;;;5057023;28;20021;-24
2023/07/20 12:41:02;;;;;;;4.80;1.60;;;;;;;;;;5074728;28;20094;-25
2023/07/20 12:43:29;;;;;;;6.70;1.90;;;;;;;;;;5074869;28;20363;-22
2023/07/20 12:45:56;;;;;;;8.32;2.28;;;;;;;;;;5074746;28;20020;-25
2023/07/20 12:48:23;;;;;;;4.30;1.70;;;;;;;;;;5074899;28;20028;-24
2023/07/20 12:50:49;;;;;;;7.13;1.98;;;;;;;;;;5075153;28;20024;-24
2023/07/20 12:53:15;;;;;;;7.35;2.05;;;;;;;;;;5074571;28;20505;-24
2023/07/20 12:55:42;;;;;;;7.75;2.17;;;;;;;;;;5074794;28;20474;-24
2023/07/20 12:58:08;;;;;;;6.15;1.90;;;;;;;;;;5074574;28;20467;-24
2023/07/20 13:00:35;;;;;;;7.03;2.13;;;;;;;;;;5074854;28;20028;-24
2023/07/20 13:03:04;;;;;;;2.13;1.45;;;;;;;;;;5065862;28;20072;-24
2023/07/20 13:05:35;;;;;;;6.18;1.50;;;;;;;;;;5054429;28;20418;-23
2023/07/20 13:08:01;;;;;;;4.78;1.65;;;;;;;;;;5054425;28;20202;-24
2023/07/20 13:10:27;;;;;;;6.95;1.70;;;;;;;;;;5054602;28;20021;-25
2023/07/20 13:12:53;;;;;;;7.60;2.58;;;;;;;;;;5054392;28;20025;-24
2023/07/20 13:15:19;;;;;;;5.18;1.50;;;;;;;;;;5054433;28;20092;-23
2023/07/20 13:17:46;;;;;;;6.40;1.90;;;;;;;;;;5054927;28;20373;-23
2023/07/20 13:20:12;;;;;;;6.57;1.45;;;;;;;;;;5054611;28;20395;-23
2023/07/20 13:22:41;;;;;;;5.35;2.38;;;;;;;;;;5054286;28;20049;-24
2023/07/20 13:25:08;;;;;;;12.98;4.38;;;;;;;;;;5054312;28;20021;-24
2023/07/20 13:27:34;;;;;;;6.72;1.60;;;;;;;;;;5054259;28;20029;-24
2023/07/20 13:30:01;;;;;;;8.63;1.80;;;;;;;;;;5036561;28;20557;-22
2023/07/20 13:32:28;;;;;;;7.10;2.05;;;;;;;;;;5053971;28;20032;-24
2023/07/20 13:34:54;;;;;;;6.20;1.75;;;;;;;;;;5054346;28;20044;-24
2023/07/20 13:37:20;;;;;;;7.55;2.03;;;;;;;;;;5054921;28;20035;-24
2023/07/20 13:39:46;;;;;;;6.30;1.83;;;;;;;;;;5058034;28;20470;-24
2023/07/20 13:42:12;;;;;;;6.22;1.63;;;;;;;;;;5058150;28;20029;-24
2023/07/20 13:44:38;;;;;;;5.63;1.40;;;;;;;;;;5058381;28;20043;-23
2023/07/20 13:47:08;;;;;;;10.10;3.08;;;;;;;;;;5058359;28;20025;-26
2023/07/20 13:49:34;;;;;;;6.55;1.63;;;;;;;;;;5040496;28;20036;-23
2023/07/20 13:52:00;;;;;;;5.97;2.22;;;;;;;;;;5058153;28;20034;-24
2023/07/20 13:54:26;;;;;;;2.80;1.88;;;;;;;;;;5058527;28;20033;-24
2023/07/20 13:56:52;;;;;;;10.23;2.05;;;;;;;;;;5040316;28;20455;-24
2023/07/20 13:59:19;;;;;;;11.13;2.33;;;;;;;;;;5057889;28;20056;-25
2023/07/20 14:01:46;;;;;;;2.72;1.33;;;;;;;;;;5057668;28;20082;-22
2023/07/20 14:04:12;;;;;;;4.53;2.00;;;;;;;;;;5069280;28;20090;-24
2023/07/20 14:06:38;;;;;;;6.10;2.03;;;;;;;;;;5077491;28;20486;-24
2023/07/20 14:09:04;;;;;;;4.18;2.50;;;;;;;;;;5077636;28;20064;-23
2023/07/20 14:11:30;;;;;;;5.65;1.65;;;;;;;;;;5077494;28;20122;-22
2023/07/20 14:13:58;;;;;;;4.40;1.70;;;;;;;;;;5077449;28;20039;-22
2023/07/20 14:16:24;;;;;;;7.47;2.03;;;;;;;;;;5077756;28;20024;-23
2023/07/20 14:18:51;;;;;;;12.73;2.58;;;;;;;;;;5059692;28;20177;-22
2023/07/20 14:21:18;;;;;;;6.93;2.35;;;;;;;;;;5077901;28;20432;-22
2023/07/20 14:23:48;;;;;;;12.15;2.00;;;;;;;;;;5077120;28;20036;-23
2023/07/20 14:26:14;;;;;;;3.95;1.52;;;;;;;;;;5077632;28;20025;-23
2023/07/20 14:28:40;;;;;;;5.72;1.50;;;;;;;;;;5077415;28;20094;-23
2023/07/20 14:31:07;;;;;;;11.38;3.13;;;;;;;;;;5077571;28;20036;-24
2023/07/20 14:33:33;;;;;;;6.88;1.95;;;;;;;;;;5077175;28;20024;-23
2023/07/20 14:36:01;;;;;;;4.45;1.90;;;;;;;;;;5077111;28;20097;-24
2023/07/20 14:38:27;;;;;;;7.13;1.90;;;;;;;;;;5059228;28;20463;-24
2023/07/20 14:40:54;;;;;;;8.15;1.90;;;;;;;;;;5077076;28;20093;-24
2023/07/20 14:43:20;;;;;;;7.97;1.90;;;;;;;;;;5076911;28;20035;-24
2023/07/20 14:45:47;;;;;;;11.57;2.45;;;;;;;;;;5077094;28;20063;-23